createdAt,value
2022-10-13T00:13:17.410Z,73
2022-10-13T00:53:18.653Z,78
2022-10-13T01:13:19.644Z,100
2022-10-13T01:33:20.916Z,0
2022-10-13T02:03:22.618Z,83
2022-10-13T03:03:26.818Z,0
2022-10-13T03:13:27.756Z,0
2022-10-13T03:33:28.343Z,0
2022-10-13T03:53:29.847Z,86
2022-10-13T04:13:31.046Z,57
2022-10-13T04:23:31.748Z,72
2022-10-13T04:33:32.053Z,97
2022-10-13T04:43:32.790Z,100
2022-10-13T04:53:33.041Z,0
2022-10-13T05:13:34.316Z,12
2022-10-13T05:23:34.481Z,0
2022-10-13T05:33:34.678Z,0
2022-10-13T05:53:36.265Z,19
2022-10-13T06:13:38.112Z,0
2022-10-13T06:23:38.571Z,0
2022-10-13T06:33:39.237Z,0
2022-10-13T06:43:40.688Z,0
2022-10-13T06:53:40.864Z,0
2022-10-13T07:13:43.597Z,0
2022-10-13T07:23:42.294Z,0
2022-10-13T07:33:42.551Z,0
2022-10-13T07:43:43.186Z,0
2022-10-13T07:53:43.535Z,0
2022-10-13T08:03:45.682Z,0
2022-10-13T08:13:44.453Z,0
2022-10-13T08:23:44.997Z,0
2022-10-13T08:33:45.958Z,0
2022-10-13T08:44:13.662Z,0
2022-10-13T08:53:47.129Z,0
2022-10-13T09:03:47.885Z,0
2022-10-13T09:13:48.497Z,0
2022-10-13T09:23:48.794Z,0
2022-10-13T09:33:49.487Z,10
2022-10-13T09:43:49.694Z,29
2022-10-13T09:53:50.623Z,48
2022-10-13T10:03:50.980Z,73
2022-10-13T10:13:51.785Z,92
2022-10-13T10:23:52.412Z,91
2022-10-13T10:33:52.704Z,94
2022-10-13T10:43:53.491Z,92
2022-10-13T10:53:54.255Z,86
2022-10-13T11:03:54.458Z,93
2022-10-13T11:23:59.754Z,100
2022-10-13T11:33:56.173Z,100
2022-10-13T11:43:56.459Z,100
2022-10-13T11:53:56.758Z,100
2022-10-13T12:03:56.925Z,96
2022-10-13T12:13:57.534Z,100
2022-10-13T12:23:57.642Z,99
2022-10-13T12:33:58.647Z,92
2022-10-13T12:43:59.944Z,88
2022-10-13T12:53:59.091Z,84
2022-10-13T13:03:59.939Z,71
2022-10-13T13:14:00.945Z,18
2022-10-13T13:24:01.450Z,0
2022-10-13T13:34:01.497Z,100
2022-10-13T13:44:02.239Z,0
2022-10-13T13:54:03.046Z,0
2022-10-13T14:04:03.737Z,0
2022-10-13T14:14:04.423Z,3
2022-10-13T14:24:05.171Z,0
2022-10-13T14:34:05.442Z,4
2022-10-13T14:44:05.500Z,0
2022-10-13T14:54:06.539Z,0
2022-10-13T15:04:07.344Z,93
2022-10-13T15:14:08.203Z,0
2022-10-13T15:24:08.863Z,77
2022-10-13T15:34:09.142Z,70
2022-10-13T15:44:09.583Z,45
2022-10-13T15:54:09.644Z,71
2022-10-13T16:04:10.103Z,39
2022-10-13T16:14:10.585Z,41
2022-10-13T16:14:32.521Z,42
2022-10-13T16:24:16.919Z,12
2022-10-13T16:34:17.182Z,58
2022-10-13T16:44:17.964Z,52
2022-10-13T16:54:18.263Z,38
2022-10-13T17:04:22.085Z,37
2022-10-13T17:14:18.895Z,24
2022-10-13T17:24:19.891Z,16
2022-10-13T17:34:20.423Z,28
2022-10-13T17:44:21.441Z,35
2022-10-13T17:54:21.590Z,19
2022-10-13T18:04:22.179Z,40
2022-10-13T18:14:23.137Z,9
2022-10-13T18:24:23.558Z,5
2022-10-13T18:34:24.045Z,14
2022-10-13T18:44:24.395Z,29
2022-10-13T18:54:25.286Z,29
2022-10-13T19:04:26.232Z,19
2022-10-13T19:14:27.234Z,0
2022-10-13T19:24:27.715Z,18
2022-10-13T19:34:28.109Z,24
2022-10-13T19:44:28.709Z,32
2022-10-13T20:04:29.619Z,12
2022-10-13T20:14:30.571Z,1
2022-10-13T20:24:31.630Z,3
2022-10-13T20:34:32.378Z,0
2022-10-13T20:44:32.418Z,8
2022-10-13T20:54:32.485Z,42
2022-10-13T21:04:32.619Z,31
2022-10-13T21:14:32.673Z,0
2022-10-13T21:24:33.600Z,15
2022-10-13T21:34:34.440Z,0
2022-10-13T21:44:35.227Z,10
2022-10-13T21:54:35.670Z,16
2022-10-13T22:04:36.418Z,29
2022-10-13T22:14:37.329Z,12
2022-10-13T22:24:37.685Z,42
2022-10-13T22:34:37.764Z,13
2022-10-13T22:54:38.918Z,8
2022-10-13T23:04:38.960Z,33
2022-10-13T23:14:39.545Z,18
2022-10-13T23:24:40.006Z,22
2022-10-13T23:34:40.793Z,15
2022-10-13T23:44:41.814Z,12
2022-10-13T23:54:42.666Z,13
